createdAt,value
2022-08-22T06:28:54.812Z,9.25
2022-08-22T06:32:04.765Z,9.95
2022-08-22T06:35:33.065Z,9.05
2022-08-22T06:42:43.924Z,11.87
2022-08-22T06:46:53.537Z,10.73
2022-08-22T06:50:13.907Z,12.75
2022-08-22T07:13:02.434Z,10.65
2022-08-22T07:16:32.379Z,9.25
2022-08-22T07:19:36.023Z,8.18
2022-08-22T07:27:04.807Z,9.15
2022-08-22T08:01:34.457Z,12.40
2022-08-22T08:04:40.815Z,9.27
2022-08-22T08:07:28.023Z,7.82
2022-08-22T08:10:16.563Z,6.47
2022-08-22T08:13:03.641Z,9.07
2022-08-22T08:18:38.287Z,6.55
2022-08-22T08:21:32.966Z,8.75
2022-08-22T08:25:18.105Z,7.38
2022-08-22T08:30:46.611Z,7.60
2022-08-22T08:32:40.881Z,6.87
2022-08-22T08:43:10.764Z,8.57
2022-08-22T08:46:12.345Z,9.15
2022-08-22T08:49:28.701Z,10.68
2022-08-22T08:52:37.175Z,9.00
2022-08-22T09:00:20.618Z,9.52
2022-08-22T09:03:11.037Z,11.90
2022-08-22T09:10:30.159Z,10.73
2022-08-22T09:14:18.792Z,10.18
2022-08-22T09:18:06.789Z,10.50
2022-08-22T10:43:41.232Z,8.52
2022-08-22T13:06:43.292Z,56.83
2022-08-22T13:09:30.992Z,30.45
2022-08-22T13:12:21.258Z,47.17
2022-08-22T13:14:52.996Z,63.17
2022-08-22T13:17:25.311Z,27.63
2022-08-22T13:19:59.920Z,24.50
2022-08-22T13:22:29.073Z,24.73
2022-08-22T13:25:04.956Z,19.05
2022-08-22T13:27:32.455Z,19.52
2022-08-22T13:30:05.722Z,18.00
2022-08-22T13:32:36.407Z,19.10
2022-08-22T13:35:07.822Z,23.95
2022-08-22T13:37:44.568Z,22.98
2022-08-22T13:40:14.208Z,19.92
2022-08-22T13:42:49.401Z,17.17
2022-08-22T13:45:28.364Z,15.07
2022-08-22T13:48:03.978Z,16.55
2022-08-22T13:50:53.424Z,18.20
2022-08-22T13:53:36.137Z,14.13
2022-08-22T13:56:15.858Z,18.43
2022-08-22T13:58:49.764Z,17.63
2022-08-22T14:01:41.080Z,14.43
2022-08-22T14:04:28.802Z,16.45
2022-08-22T14:07:05.819Z,14.25
2022-08-22T14:09:54.367Z,13.10
2022-08-22T14:12:59.238Z,15.33
2022-08-22T14:15:45.753Z,14.10
2022-08-22T14:18:18.509Z,13.48
2022-08-22T14:20:49.474Z,16.05
2022-08-22T14:23:40.046Z,12.90
2022-08-22T14:26:32.623Z,14.25
2022-08-22T14:29:03.425Z,12.07
2022-08-22T14:31:37.441Z,14.50
2022-08-22T14:34:24.109Z,16.17
2022-08-22T14:37:15.642Z,13.13
2022-08-22T14:39:49.155Z,11.50
2022-08-22T14:42:53.481Z,12.30
2022-08-22T14:45:34.918Z,18.70
2022-08-22T14:48:32.612Z,15.20
2022-08-22T14:51:25.161Z,14.00
2022-08-22T14:54:21.507Z,11.00
2022-08-22T14:56:56.291Z,11.82
2022-08-22T14:59:43.441Z,13.95
2022-08-22T15:02:32.604Z,11.30
2022-08-22T15:05:26.110Z,12.67
2022-08-22T15:08:01.815Z,15.23
2022-08-22T15:10:44.567Z,12.07
2022-08-22T15:13:25.067Z,12.93
2022-08-22T15:16:01.512Z,11.65
2022-08-22T15:18:39.696Z,14.07
2022-08-22T15:21:31.486Z,11.45
2022-08-22T15:24:10.021Z,14.80
2022-08-22T15:26:52.264Z,11.93
2022-08-22T15:29:33.340Z,13.93
2022-08-22T15:32:06.319Z,13.57
2022-08-22T15:34:44.649Z,11.23
2022-08-22T15:37:18.372Z,13.88
2022-08-22T15:40:08.160Z,12.93
2022-08-22T15:42:47.490Z,15.13
2022-08-22T15:45:39.465Z,13.10
2022-08-22T15:48:28.010Z,13.70
2022-08-22T15:51:09.468Z,15.10
2022-08-22T15:53:51.634Z,12.77
2022-08-22T15:56:29.558Z,14.23
2022-08-22T15:59:26.440Z,10.35
2022-08-22T16:02:07.950Z,10.07
2022-08-22T16:04:50.649Z,10.93
2022-08-22T16:07:26.595Z,10.23
2022-08-22T16:09:58.718Z,9.25
2022-08-22T16:12:44.757Z,10.35
2022-08-22T16:15:56.304Z,11.95
2022-08-22T16:18:33.816Z,10.15
2022-08-22T16:21:27.169Z,11.10
2022-08-22T16:23:56.602Z,10.27
2022-08-22T16:26:43.128Z,10.00
2022-08-22T16:29:35.910Z,11.25
2022-08-22T16:32:07.536Z,11.13
2022-08-22T16:34:46.488Z,9.05
2022-08-22T16:37:22.525Z,10.77
2022-08-22T16:40:00.579Z,8.57
2022-08-22T16:42:47.547Z,9.83
2022-08-22T16:45:49.616Z,8.38
2022-08-22T16:48:37.496Z,7.45
2022-08-22T16:51:24.996Z,7.78
2022-08-22T16:54:36.808Z,10.25
2022-08-22T16:57:31.976Z,8.20
2022-08-22T17:00:57.671Z,10.60
2022-08-22T17:03:55.662Z,9.07
2022-08-22T17:07:02.600Z,11.77
2022-08-22T17:09:59.478Z,9.35
2022-08-22T17:12:44.448Z,8.77
2022-08-22T17:15:53.221Z,10.47
2022-08-22T17:18:55.609Z,11.87
2022-08-22T17:21:31.044Z,11.40
2022-08-22T17:24:43.983Z,10.48
2022-08-22T17:27:35.274Z,10.60
2022-08-22T17:30:18.166Z,10.32
2022-08-22T17:33:16.264Z,11.23
2022-08-22T17:36:01.316Z,11.70
2022-08-22T17:38:48.156Z,11.20
2022-08-22T17:41:41.573Z,10.88
2022-08-22T17:44:21.728Z,11.70
2022-08-22T17:47:11.554Z,12.18
2022-08-22T17:49:45.215Z,11.70
2022-08-22T17:52:35.341Z,10.57
2022-08-22T17:55:41.467Z,12.85
2022-08-22T17:58:37.722Z,11.75
2022-08-22T18:01:58.346Z,12.95
2022-08-22T18:04:55.773Z,9.00
2022-08-22T18:07:53.830Z,12.00
2022-08-22T18:10:51.517Z,12.57
2022-08-22T18:13:46.059Z,11.18
2022-08-22T18:17:06.756Z,13.80
2022-08-22T18:19:44.319Z,10.77
2022-08-22T18:22:30.354Z,9.63
2022-08-22T18:25:15.965Z,11.35
2022-08-22T18:28:33.769Z,13.67
2022-08-22T18:31:38.289Z,12.63
2022-08-22T18:34:26.615Z,11.82
2022-08-22T18:37:22.199Z,13.15
2022-08-22T18:40:05.630Z,13.63
2022-08-22T18:42:51.874Z,11.68
2022-08-22T18:49:14.588Z,13.07
2022-08-22T18:52:02.698Z,14.65
2022-08-22T18:55:04.095Z,14.23
2022-08-22T18:58:16.408Z,11.05
2022-08-22T19:04:46.573Z,11.47
2022-08-22T19:07:37.088Z,15.38
2022-08-22T19:10:46.931Z,11.50
2022-08-22T19:13:35.426Z,12.90
2022-08-22T19:16:43.249Z,16.17
2022-08-22T19:19:56.758Z,14.90
2022-08-22T19:22:44.623Z,11.17
2022-08-22T19:26:11.258Z,12.55
2022-08-22T19:29:26.820Z,10.93
2022-08-22T19:32:15.258Z,12.95
2022-08-22T19:35:25.223Z,10.18
2022-08-22T19:38:10.223Z,11.70
2022-08-22T19:41:40.226Z,12.03
2022-08-22T19:44:37.857Z,14.77
2022-08-22T19:47:22.028Z,19.08
2022-08-22T19:50:18.720Z,18.85
2022-08-22T19:53:22.324Z,16.50
2022-08-22T19:55:57.734Z,15.63
2022-08-22T19:58:54.733Z,15.67
2022-08-22T20:01:38.575Z,17.30
2022-08-22T20:05:12.300Z,17.92
2022-08-22T20:08:00.483Z,16.50
2022-08-22T20:10:59.769Z,15.65
2022-08-22T20:14:13.875Z,14.43
2022-08-22T20:17:26.046Z,12.90
2022-08-22T20:20:39.230Z,16.47
2022-08-22T20:23:36.796Z,11.23
2022-08-22T20:26:47.513Z,10.30
2022-08-22T20:29:22.826Z,11.48
2022-08-22T20:32:00.212Z,10.98
2022-08-22T20:35:19.392Z,10.95
2022-08-22T20:38:10.646Z,10.87
2022-08-22T20:41:28.303Z,11.17
2022-08-22T20:44:41.997Z,14.18
2022-08-22T20:47:40.787Z,11.32
2022-08-22T20:50:17.382Z,12.43
2022-08-22T20:52:54.526Z,12.50
2022-08-22T20:55:35.283Z,12.73
2022-08-22T20:58:30.187Z,12.10
2022-08-22T21:01:19.151Z,11.10
2022-08-22T21:04:04.161Z,14.35
2022-08-22T21:06:59.482Z,11.32
2022-08-22T21:10:04.843Z,12.25
2022-08-22T21:13:14.963Z,13.10
2022-08-22T21:16:37.903Z,9.10
2022-08-22T21:19:29.460Z,11.47
2022-08-22T21:22:21.692Z,11.85
2022-08-22T21:25:16.251Z,11.70
2022-08-22T21:28:00.452Z,10.10
2022-08-22T21:30:56.187Z,10.75
2022-08-22T21:34:11.216Z,10.85
2022-08-22T21:36:42.432Z,11.80
2022-08-22T21:39:53.243Z,11.93
2022-08-22T21:42:54.214Z,8.85
2022-08-22T21:46:02.163Z,8.20
2022-08-22T21:49:05.679Z,11.60
2022-08-22T21:52:52.271Z,10.88
2022-08-22T21:55:37.039Z,12.60
2022-08-22T21:58:36.919Z,10.53
2022-08-22T22:02:04.077Z,10.53
2022-08-22T22:04:50.051Z,10.90
2022-08-22T22:07:33.528Z,9.05
2022-08-22T22:10:27.634Z,10.55
2022-08-22T22:13:23.790Z,8.48
2022-08-22T22:19:27.235Z,9.77
2022-08-22T22:22:18.251Z,9.73
2022-08-22T22:25:05.035Z,8.87
2022-08-22T22:28:28.172Z,10.90
2022-08-22T22:31:20.404Z,9.70
2022-08-22T22:34:14.087Z,11.82
2022-08-22T22:37:19.782Z,9.25
2022-08-22T22:40:08.407Z,9.10
2022-08-22T22:42:58.776Z,8.27
2022-08-22T22:46:02.200Z,10.33
2022-08-22T22:51:51.336Z,9.60
2022-08-22T22:54:50.930Z,8.68
2022-08-22T22:57:46.794Z,9.65
2022-08-22T23:00:31.020Z,8.57
2022-08-22T23:03:13.134Z,10.47
2022-08-22T23:06:12.833Z,11.25
2022-08-22T23:09:04.022Z,19.80
2022-08-22T23:13:00.834Z,9.73
2022-08-22T23:15:27.148Z,9.07
2022-08-22T23:18:50.362Z,10.98
2022-08-22T23:21:43.742Z,10.73
2022-08-22T23:27:30.030Z,8.23
2022-08-22T23:30:41.754Z,8.55
2022-08-22T23:33:45.992Z,13.43
2022-08-22T23:36:56.049Z,9.68
2022-08-22T23:40:02.692Z,7.93
2022-08-22T23:43:05.614Z,9.20
2022-08-22T23:45:51.231Z,7.82
2022-08-22T23:48:56.575Z,9.18
2022-08-22T23:51:53.056Z,9.40
2022-08-22T23:54:57.859Z,8.20
